sensor_id;sensor_type;location;lat;lon;timestamp;P1;durP1;ratioP1;P2;durP2;ratioP2
33279;SDS011;20403;43.114;12.434;2023-08-31T00:01:09;14.00;;;2.03;;
33279;SDS011;20403;43.114;12.434;2023-08-31T00:03:36;16.67;;;2.00;;
33279;SDS011;20403;43.114;12.434;2023-08-31T00:06:02;18.35;;;2.17;;
33279;SDS011;20403;43.114;12.434;2023-08-31T00:08:29;8.60;;;2.28;;
33279;SDS011;20403;43.114;12.434;2023-08-31T00:10:57;10.77;;;1.70;;
33279;SDS011;20403;43.114;12.434;2023-08-31T00:13:23;14.57;;;2.55;;
33279;SDS011;20403;43.114;12.434;2023-08-31T00:15:49;19.15;;;2.50;;
33279;SDS011;20403;43.114;12.434;2023-08-31T00:18:14;8.43;;;1.73;;
33279;SDS011;20403;43.114;12.434;2023-08-31T00:20:41;10.82;;;2.28;;
33279;SDS011;20403;43.114;12.434;2023-08-31T00:23:07;24.77;;;2.10;;
33279;SDS011;20403;43.114;12.434;2023-08-31T00:25:32;17.35;;;2.13;;
33279;SDS011;20403;43.114;12.434;2023-08-31T00:27:58;7.25;;;1.63;;
33279;SDS011;20403;43.114;12.434;2023-08-31T00:30:29;17.08;;;3.00;;
33279;SDS011;20403;43.114;12.434;2023-08-31T00:32:55;10.45;;;2.22;;
33279;SDS011;20403;43.114;12.434;2023-08-31T00:35:25;12.90;;;2.13;;
33279;SDS011;20403;43.114;12.434;2023-08-31T00:37:52;13.75;;;1.95;;
33279;SDS011;20403;43.114;12.434;2023-08-31T00:40:23;7.88;;;2.10;;
33279;SDS011;20403;43.114;12.434;2023-08-31T00:42:49;11.35;;;1.67;;
33279;SDS011;20403;43.114;12.434;2023-08-31T00:45:14;13.15;;;2.88;;
33279;SDS011;20403;43.114;12.434;2023-08-31T00:47:40;18.33;;;2.85;;
33279;SDS011;20403;43.114;12.434;2023-08-31T00:50:07;8.80;;;2.33;;
33279;SDS011;20403;43.114;12.434;2023-08-31T00:52:33;15.65;;;2.17;;
33279;SDS011;20403;43.114;12.434;2023-08-31T00:54:59;9.13;;;1.80;;
33279;SDS011;20403;43.114;12.434;2023-08-31T06:04:44;29.53;;;5.43;;
33279;SDS011;20403;43.114;12.434;2023-08-31T06:07:10;18.80;;;4.00;;
33279;SDS011;20403;43.114;12.434;2023-08-31T06:09:35;22.80;;;4.85;;
33279;SDS011;20403;43.114;12.434;2023-08-31T06:12:02;19.85;;;3.90;;
33279;SDS011;20403;43.114;12.434;2023-08-31T06:14:28;20.02;;;4.00;;
33279;SDS011;20403;43.114;12.434;2023-08-31T06:16:54;15.32;;;3.60;;
33279;SDS011;20403;43.114;12.434;2023-08-31T06:19:19;12.85;;;4.63;;
33279;SDS011;20403;43.114;12.434;2023-08-31T06:21:45;15.38;;;4.82;;
33279;SDS011;20403;43.114;12.434;2023-08-31T06:24:10;21.13;;;4.07;;
33279;SDS011;20403;43.114;12.434;2023-08-31T06:26:38;15.85;;;4.57;;
33279;SDS011;20403;43.114;12.434;2023-08-31T06:29:04;22.08;;;4.70;;
33279;SDS011;20403;43.114;12.434;2023-08-31T06:31:29;11.68;;;4.30;;
33279;SDS011;20403;43.114;12.434;2023-08-31T06:33:54;16.30;;;4.35;;
33279;SDS011;20403;43.114;12.434;2023-08-31T06:36:20;12.70;;;5.10;;
33279;SDS011;20403;43.114;12.434;2023-08-31T06:38:45;23.83;;;4.70;;
33279;SDS011;20403;43.114;12.434;2023-08-31T06:41:11;18.17;;;4.38;;
33279;SDS011;20403;43.114;12.434;2023-08-31T06:43:36;14.88;;;6.18;;
33279;SDS011;20403;43.114;12.434;2023-08-31T06:46:02;13.63;;;3.95;;
33279;SDS011;20403;43.114;12.434;2023-08-31T06:48:27;15.73;;;4.28;;
33279;SDS011;20403;43.114;12.434;2023-08-31T06:50:53;21.75;;;5.40;;
33279;SDS011;20403;43.114;12.434;2023-08-31T06:53:19;17.38;;;4.95;;
33279;SDS011;20403;43.114;12.434;2023-08-31T06:55:44;16.20;;;4.70;;
33279;SDS011;20403;43.114;12.434;2023-08-31T06:58:09;21.73;;;4.90;;
33279;SDS011;20403;43.114;12.434;2023-08-31T07:00:35;18.85;;;4.55;;
33279;SDS011;20403;43.114;12.434;2023-08-31T07:03:00;25.50;;;5.43;;
33279;SDS011;20403;43.114;12.434;2023-08-31T07:05:26;18.02;;;4.43;;
33279;SDS011;20403;43.114;12.434;2023-08-31T07:07:52;20.70;;;4.45;;
33279;SDS011;20403;43.114;12.434;2023-08-31T07:10:19;19.27;;;5.85;;
33279;SDS011;20403;43.114;12.434;2023-08-31T07:12:45;21.70;;;6.88;;
33279;SDS011;20403;43.114;12.434;2023-08-31T07:15:10;19.77;;;6.70;;
33279;SDS011;20403;43.114;12.434;2023-08-31T07:17:36;23.55;;;6.32;;
33279;SDS011;20403;43.114;12.434;2023-08-31T07:20:01;19.30;;;6.13;;
33279;SDS011;20403;43.114;12.434;2023-08-31T07:22:30;14.50;;;6.15;;
33279;SDS011;20403;43.114;12.434;2023-08-31T07:24:57;25.52;;;5.53;;
33279;SDS011;20403;43.114;12.434;2023-08-31T07:27:22;26.98;;;6.03;;
33279;SDS011;20403;43.114;12.434;2023-08-31T07:29:48;23.30;;;6.13;;
33279;SDS011;20403;43.114;12.434;2023-08-31T07:32:13;30.20;;;6.00;;
33279;SDS011;20403;43.114;12.434;2023-08-31T07:34:39;36.33;;;6.03;;
33279;SDS011;20403;43.114;12.434;2023-08-31T07:37:04;21.67;;;5.28;;
33279;SDS011;20403;43.114;12.434;2023-08-31T07:39:31;26.35;;;5.85;;
33279;SDS011;20403;43.114;12.434;2023-08-31T07:41:56;24.15;;;5.53;;
33279;SDS011;20403;43.114;12.434;2023-08-31T07:44:23;16.95;;;4.80;;
33279;SDS011;20403;43.114;12.434;2023-08-31T07:46:48;19.08;;;4.72;;
33279;SDS011;20403;43.114;12.434;2023-08-31T07:49:14;17.25;;;5.00;;
33279;SDS011;20403;43.114;12.434;2023-08-31T07:51:39;18.52;;;4.97;;
33279;SDS011;20403;43.114;12.434;2023-08-31T07:54:05;20.58;;;4.95;;
33279;SDS011;20403;43.114;12.434;2023-08-31T07:56:30;18.27;;;4.57;;
33279;SDS011;20403;43.114;12.434;2023-08-31T07:58:56;22.08;;;5.32;;
33279;SDS011;20403;43.114;12.434;2023-08-31T08:01:21;23.65;;;4.25;;
33279;SDS011;20403;43.114;12.434;2023-08-31T08:03:47;14.45;;;4.32;;
33279;SDS011;20403;43.114;12.434;2023-08-31T08:06:12;23.35;;;4.85;;
33279;SDS011;20403;43.114;12.434;2023-08-31T08:08:37;12.77;;;3.95;;
33279;SDS011;20403;43.114;12.434;2023-08-31T08:11:04;17.83;;;4.55;;
33279;SDS011;20403;43.114;12.434;2023-08-31T08:13:29;15.90;;;3.20;;
33279;SDS011;20403;43.114;12.434;2023-08-31T08:15:55;16.42;;;3.90;;
33279;SDS011;20403;43.114;12.434;2023-08-31T08:18:20;14.10;;;3.42;;
33279;SDS011;20403;43.114;12.434;2023-08-31T08:20:52;15.43;;;3.80;;
33279;SDS011;20403;43.114;12.434;2023-08-31T08:23:17;12.48;;;3.42;;
33279;SDS011;20403;43.114;12.434;2023-08-31T08:25:43;12.85;;;3.38;;
33279;SDS011;20403;43.114;12.434;2023-08-31T08:28:08;14.13;;;3.42;;
33279;SDS011;20403;43.114;12.434;2023-08-31T08:30:33;18.17;;;3.60;;
33279;SDS011;20403;43.114;12.434;2023-08-31T08:32:59;16.42;;;3.63;;
33279;SDS011;20403;43.114;12.434;2023-08-31T08:35:24;17.55;;;4.15;;
33279;SDS011;20403;43.114;12.434;2023-08-31T08:37:50;14.70;;;4.28;;
33279;SDS011;20403;43.114;12.434;2023-08-31T08:40:16;18.02;;;3.78;;
33279;SDS011;20403;43.114;12.434;2023-08-31T08:42:42;14.80;;;3.60;;
33279;SDS011;20403;43.114;12.434;2023-08-31T08:45:14;13.07;;;3.20;;
33279;SDS011;20403;43.114;12.434;2023-08-31T08:47:41;17.17;;;3.85;;
33279;SDS011;20403;43.114;12.434;2023-08-31T08:50:08;15.30;;;3.15;;
33279;SDS011;20403;43.114;12.434;2023-08-31T08:52:34;18.95;;;4.20;;
33279;SDS011;20403;43.114;12.434;2023-08-31T08:55:00;13.32;;;3.15;;
33279;SDS011;20403;43.114;12.434;2023-08-31T08:57:27;21.42;;;3.95;;
33279;SDS011;20403;43.114;12.434;2023-08-31T08:59:53;20.60;;;4.20;;
33279;SDS011;20403;43.114;12.434;2023-08-31T09:02:18;15.70;;;3.22;;
33279;SDS011;20403;43.114;12.434;2023-08-31T09:04:44;21.58;;;4.22;;
33279;SDS011;20403;43.114;12.434;2023-08-31T09:07:09;27.00;;;5.32;;
33279;SDS011;20403;43.114;12.434;2023-08-31T09:09:51;22.85;;;4.30;;
33279;SDS011;20403;43.114;12.434;2023-08-31T09:12:17;35.80;;;5.10;;
33279;SDS011;20403;43.114;12.434;2023-08-31T09:14:44;26.98;;;4.78;;
33279;SDS011;20403;43.114;12.434;2023-08-31T09:17:23;20.30;;;4.07;;
33279;SDS011;20403;43.114;12.434;2023-08-31T09:19:58;24.10;;;3.42;;
33279;SDS011;20403;43.114;12.434;2023-08-31T09:22:28;11.35;;;2.70;;
33279;SDS011;20403;43.114;12.434;2023-08-31T09:24:54;13.88;;;3.33;;
33279;SDS011;20403;43.114;12.434;2023-08-31T09:27:19;12.85;;;3.33;;
33279;SDS011;20403;43.114;12.434;2023-08-31T09:29:45;19.73;;;3.63;;
33279;SDS011;20403;43.114;12.434;2023-08-31T09:32:15;16.00;;;3.47;;
33279;SDS011;20403;43.114;12.434;2023-08-31T09:34:42;14.15;;;3.00;;
33279;SDS011;20403;43.114;12.434;2023-08-31T09:37:08;13.77;;;3.92;;
33279;SDS011;20403;43.114;12.434;2023-08-31T09:39:40;18.27;;;3.42;;
33279;SDS011;20403;43.114;12.434;2023-08-31T09:42:06;19.02;;;4.07;;
33279;SDS011;20403;43.114;12.434;2023-08-31T09:44:32;16.75;;;4.32;;
33279;SDS011;20403;43.114;12.434;2023-08-31T09:46:57;12.45;;;2.75;;
33279;SDS011;20403;43.114;12.434;2023-08-31T09:49:23;12.52;;;2.72;;
33279;SDS011;20403;43.114;12.434;2023-08-31T09:51:50;13.05;;;2.78;;
33279;SDS011;20403;43.114;12.434;2023-08-31T09:54:17;8.80;;;2.40;;
33279;SDS011;20403;43.114;12.434;2023-08-31T09:56:44;12.00;;;2.60;;
33279;SDS011;20403;43.114;12.434;2023-08-31T09:59:11;9.57;;;2.35;;
33279;SDS011;20403;43.114;12.434;2023-08-31T10:01:44;9.43;;;2.28;;
33279;SDS011;20403;43.114;12.434;2023-08-31T10:04:11;10.60;;;2.45;;
33279;SDS011;20403;43.114;12.434;2023-08-31T10:06:40;11.13;;;2.50;;
33279;SDS011;20403;43.114;12.434;2023-08-31T10:09:07;6.28;;;2.40;;
33279;SDS011;20403;43.114;12.434;2023-08-31T10:11:37;7.30;;;2.47;;
33279;SDS011;20403;43.114;12.434;2023-08-31T10:14:03;8.20;;;2.15;;
33279;SDS011;20403;43.114;12.434;2023-08-31T10:16:29;12.48;;;2.75;;
33279;SDS011;20403;43.114;12.434;2023-08-31T10:18:55;13.32;;;2.60;;
33279;SDS011;20403;43.114;12.434;2023-08-31T10:21:21;11.65;;;2.63;;
33279;SDS011;20403;43.114;12.434;2023-08-31T10:23:48;11.27;;;2.80;;
33279;SDS011;20403;43.114;12.434;2023-08-31T10:26:24;15.90;;;3.08;;
33279;SDS011;20403;43.114;12.434;2023-08-31T10:28:50;7.82;;;2.33;;
33279;SDS011;20403;43.114;12.434;2023-08-31T10:31:16;12.30;;;2.63;;
33279;SDS011;20403;43.114;12.434;2023-08-31T10:33:46;10.13;;;2.65;;
33279;SDS011;20403;43.114;12.434;2023-08-31T10:36:19;6.15;;;1.85;;
33279;SDS011;20403;43.114;12.434;2023-08-31T10:39:30;8.77;;;2.30;;
33279;SDS011;20403;43.114;12.434;2023-08-31T10:41:38;10.68;;;2.20;;
33279;SDS011;20403;43.114;12.434;2023-08-31T10:44:38;8.95;;;2.97;;
33279;SDS011;20403;43.114;12.434;2023-08-31T10:46:59;7.95;;;2.22;;
33279;SDS011;20403;43.114;12.434;2023-08-31T10:49:28;8.27;;;2.80;;
33279;SDS011;20403;43.114;12.434;2023-08-31T10:51:56;16.80;;;2.65;;
33279;SDS011;20403;43.114;12.434;2023-08-31T10:54:39;6.18;;;2.35;;
33279;SDS011;20403;43.114;12.434;2023-08-31T10:57:05;8.07;;;2.92;;
33279;SDS011;20403;43.114;12.434;2023-08-31T10:59:49;9.18;;;2.30;;
33279;SDS011;20403;43.114;12.434;2023-08-31T11:04:55;9.27;;;2.53;;
33279;SDS011;20403;43.114;12.434;2023-08-31T11:07:26;8.82;;;2.63;;
33279;SDS011;20403;43.114;12.434;2023-08-31T11:09:52;9.95;;;2.08;;
33279;SDS011;20403;43.114;12.434;2023-08-31T11:12:32;10.07;;;2.50;;
33279;SDS011;20403;43.114;12.434;2023-08-31T11:14:57;13.75;;;2.60;;
33279;SDS011;20403;43.114;12.434;2023-08-31T11:17:23;7.13;;;2.05;;
33279;SDS011;20403;43.114;12.434;2023-08-31T11:19:49;7.93;;;2.50;;
33279;SDS011;20403;43.114;12.434;2023-08-31T11:22:14;8.30;;;2.60;;
33279;SDS011;20403;43.114;12.434;2023-08-31T11:24:40;9.35;;;2.25;;
33279;SDS011;20403;43.114;12.434;2023-08-31T11:27:07;9.10;;;2.17;;
33279;SDS011;20403;43.114;12.434;2023-08-31T11:29:38;5.30;;;2.08;;
33279;SDS011;20403;43.114;12.434;2023-08-31T11:32:08;7.93;;;2.05;;
33279;SDS011;20403;43.114;12.434;2023-08-31T11:34:33;7.47;;;1.88;;
33279;SDS011;20403;43.114;12.434;2023-08-31T11:37:01;7.78;;;2.10;;
33279;SDS011;20403;43.114;12.434;2023-08-31T11:39:27;9.40;;;1.80;;
33279;SDS011;20403;43.114;12.434;2023-08-31T11:41:53;8.13;;;1.63;;
33279;SDS011;20403;43.114;12.434;2023-08-31T11:44:20;7.13;;;2.00;;
33279;SDS011;20403;43.114;12.434;2023-08-31T11:46:46;6.75;;;1.90;;
33279;SDS011;20403;43.114;12.434;2023-08-31T11:49:15;7.83;;;1.90;;
33279;SDS011;20403;43.114;12.434;2023-08-31T11:51:43;10.50;;;1.90;;
33279;SDS011;20403;43.114;12.434;2023-08-31T11:54:10;8.52;;;1.75;;
33279;SDS011;20403;43.114;12.434;2023-08-31T11:56:45;7.70;;;2.05;;
33279;SDS011;20403;43.114;12.434;2023-08-31T11:59:16;9.10;;;2.00;;
33279;SDS011;20403;43.114;12.434;2023-08-31T12:01:43;5.20;;;1.90;;
33279;SDS011;20403;43.114;12.434;2023-08-31T12:04:15;6.07;;;2.05;;
33279;SDS011;20403;43.114;12.434;2023-08-31T12:06:47;6.65;;;1.80;;
33279;SDS011;20403;43.114;12.434;2023-08-31T12:09:13;8.77;;;2.58;;
33279;SDS011;20403;43.114;12.434;2023-08-31T12:11:39;11.15;;;2.63;;
33279;SDS011;20403;43.114;12.434;2023-08-31T12:14:17;6.63;;;2.28;;
33279;SDS011;20403;43.114;12.434;2023-08-31T12:16:47;6.65;;;1.58;;
33279;SDS011;20403;43.114;12.434;2023-08-31T12:19:14;8.20;;;1.65;;
33279;SDS011;20403;43.114;12.434;2023-08-31T12:21:41;6.30;;;1.58;;
33279;SDS011;20403;43.114;12.434;2023-08-31T12:24:08;9.73;;;1.70;;
33279;SDS011;20403;43.114;12.434;2023-08-31T12:26:34;8.52;;;1.50;;
33279;SDS011;20403;43.114;12.434;2023-08-31T12:29:00;6.13;;;1.60;;
33279;SDS011;20403;43.114;12.434;2023-08-31T12:31:25;6.22;;;2.00;;
33279;SDS011;20403;43.114;12.434;2023-08-31T12:33:51;7.13;;;1.90;;
33279;SDS011;20403;43.114;12.434;2023-08-31T12:36:16;5.20;;;1.80;;
33279;SDS011;20403;43.114;12.434;2023-08-31T12:38:42;5.43;;;1.30;;
33279;SDS011;20403;43.114;12.434;2023-08-31T12:41:07;5.30;;;1.58;;
33279;SDS011;20403;43.114;12.434;2023-08-31T12:43:34;5.65;;;1.50;;
33279;SDS011;20403;43.114;12.434;2023-08-31T12:45:59;8.18;;;1.63;;
33279;SDS011;20403;43.114;12.434;2023-08-31T12:48:25;6.53;;;1.60;;
33279;SDS011;20403;43.114;12.434;2023-08-31T12:50:51;5.07;;;1.33;;
33279;SDS011;20403;43.114;12.434;2023-08-31T12:53:18;9.68;;;1.60;;
33279;SDS011;20403;43.114;12.434;2023-08-31T12:55:45;6.30;;;1.60;;
33279;SDS011;20403;43.114;12.434;2023-08-31T12:58:11;7.38;;;2.08;;
33279;SDS011;20403;43.114;12.434;2023-08-31T13:00:36;11.75;;;1.60;;
33279;SDS011;20403;43.114;12.434;2023-08-31T13:03:02;5.78;;;1.65;;
33279;SDS011;20403;43.114;12.434;2023-08-31T13:05:28;4.90;;;1.70;;
33279;SDS011;20403;43.114;12.434;2023-08-31T13:07:54;11.18;;;1.88;;
33279;SDS011;20403;43.114;12.434;2023-08-31T13:10:20;4.75;;;1.42;;
33279;SDS011;20403;43.114;12.434;2023-08-31T13:12:45;6.88;;;2.08;;
33279;SDS011;20403;43.114;12.434;2023-08-31T13:15:11;9.18;;;1.60;;
33279;SDS011;20403;43.114;12.434;2023-08-31T13:17:38;8.70;;;1.90;;
33279;SDS011;20403;43.114;12.434;2023-08-31T13:20:03;8.45;;;2.00;;
33279;SDS011;20403;43.114;12.434;2023-08-31T13:22:29;8.13;;;2.05;;
33279;SDS011;20403;43.114;12.434;2023-08-31T13:24:55;10.70;;;1.75;;
33279;SDS011;20403;43.114;12.434;2023-08-31T13:27:21;11.93;;;2.03;;
33279;SDS011;20403;43.114;12.434;2023-08-31T13:29:47;6.55;;;1.80;;
33279;SDS011;20403;43.114;12.434;2023-08-31T13:32:12;5.82;;;1.65;;
33279;SDS011;20403;43.114;12.434;2023-08-31T13:34:38;7.43;;;1.35;;
33279;SDS011;20403;43.114;12.434;2023-08-31T13:37:04;10.50;;;2.20;;
33279;SDS011;20403;43.114;12.434;2023-08-31T13:39:30;5.90;;;2.00;;
33279;SDS011;20403;43.114;12.434;2023-08-31T13:41:56;6.93;;;1.80;;
33279;SDS011;20403;43.114;12.434;2023-08-31T13:44:21;10.93;;;1.92;;
33279;SDS011;20403;43.114;12.434;2023-08-31T13:46:47;12.27;;;1.55;;
33279;SDS011;20403;43.114;12.434;2023-08-31T13:49:13;9.48;;;1.95;;
33279;SDS011;20403;43.114;12.434;2023-08-31T13:51:39;8.60;;;1.63;;
33279;SDS011;20403;43.114;12.434;2023-08-31T13:54:05;4.55;;;1.88;;
33279;SDS011;20403;43.114;12.434;2023-08-31T13:56:32;7.15;;;1.63;;
33279;SDS011;20403;43.114;12.434;2023-08-31T13:58:57;5.90;;;2.28;;
33279;SDS011;20403;43.114;12.434;2023-08-31T14:01:24;7.47;;;1.98;;
33279;SDS011;20403;43.114;12.434;2023-08-31T14:03:49;5.57;;;1.58;;
33279;SDS011;20403;43.114;12.434;2023-08-31T14:06:15;5.95;;;1.60;;
33279;SDS011;20403;43.114;12.434;2023-08-31T14:08:40;8.10;;;1.75;;
33279;SDS011;20403;43.114;12.434;2023-08-31T14:11:06;7.78;;;1.63;;
33279;SDS011;20403;43.114;12.434;2023-08-31T14:13:31;7.32;;;1.52;;
33279;SDS011;20403;43.114;12.434;2023-08-31T14:15:57;5.93;;;1.70;;
33279;SDS011;20403;43.114;12.434;2023-08-31T14:18:23;7.18;;;2.10;;
33279;SDS011;20403;43.114;12.434;2023-08-31T14:20:50;7.63;;;1.60;;
33279;SDS011;20403;43.114;12.434;2023-08-31T14:23:16;5.72;;;1.73;;
33279;SDS011;20403;43.114;12.434;2023-08-31T14:25:41;5.13;;;1.92;;
33279;SDS011;20403;43.114;12.434;2023-08-31T14:28:07;7.93;;;1.77;;
33279;SDS011;20403;43.114;12.434;2023-08-31T14:30:32;12.40;;;1.70;;
33279;SDS011;20403;43.114;12.434;2023-08-31T14:33:00;5.05;;;1.75;;
33279;SDS011;20403;43.114;12.434;2023-08-31T14:35:25;7.13;;;1.90;;
33279;SDS011;20403;43.114;12.434;2023-08-31T14:37:52;4.70;;;1.55;;
33279;SDS011;20403;43.114;12.434;2023-08-31T14:40:17;6.75;;;1.45;;
33279;SDS011;20403;43.114;12.434;2023-08-31T14:42:43;7.93;;;1.88;;
33279;SDS011;20403;43.114;12.434;2023-08-31T14:45:08;6.60;;;1.60;;
33279;SDS011;20403;43.114;12.434;2023-08-31T14:47:34;12.98;;;1.65;;
33279;SDS011;20403;43.114;12.434;2023-08-31T14:49:59;5.57;;;2.08;;
33279;SDS011;20403;43.114;12.434;2023-08-31T14:52:24;8.32;;;1.90;;
33279;SDS011;20403;43.114;12.434;2023-08-31T14:54:50;9.57;;;1.88;;
33279;SDS011;20403;43.114;12.434;2023-08-31T14:57:15;8.15;;;1.70;;
33279;SDS011;20403;43.114;12.434;2023-08-31T14:59:41;8.23;;;1.85;;
33279;SDS011;20403;43.114;12.434;2023-08-31T15:02:07;7.03;;;1.75;;
33279;SDS011;20403;43.114;12.434;2023-08-31T15:04:32;5.68;;;1.40;;
33279;SDS011;20403;43.114;12.434;2023-08-31T15:06:58;8.13;;;1.50;;
33279;SDS011;20403;43.114;12.434;2023-08-31T15:09:23;5.07;;;1.75;;
33279;SDS011;20403;43.114;12.434;2023-08-31T15:11:49;8.10;;;1.50;;
33279;SDS011;20403;43.114;12.434;2023-08-31T15:14:15;10.13;;;1.63;;
33279;SDS011;20403;43.114;12.434;2023-08-31T15:16:41;5.25;;;1.73;;
33279;SDS011;20403;43.114;12.434;2023-08-31T15:19:06;4.30;;;1.45;;
33279;SDS011;20403;43.114;12.434;2023-08-31T15:21:32;7.38;;;1.60;;
33279;SDS011;20403;43.114;12.434;2023-08-31T15:23:58;5.47;;;1.70;;
33279;SDS011;20403;43.114;12.434;2023-08-31T15:26:23;4.72;;;1.65;;
33279;SDS011;20403;43.114;12.434;2023-08-31T15:28:50;6.13;;;1.58;;
33279;SDS011;20403;43.114;12.434;2023-08-31T15:31:16;7.28;;;2.30;;
33279;SDS011;20403;43.114;12.434;2023-08-31T15:33:41;4.57;;;1.42;;
33279;SDS011;20403;43.114;12.434;2023-08-31T15:36:08;5.47;;;1.55;;
33279;SDS011;20403;43.114;12.434;2023-08-31T15:38:35;4.43;;;1.63;;
33279;SDS011;20403;43.114;12.434;2023-08-31T15:41:02;5.10;;;1.13;;
33279;SDS011;20403;43.114;12.434;2023-08-31T15:43:33;10.18;;;1.80;;
33279;SDS011;20403;43.114;12.434;2023-08-31T15:46:01;11.00;;;1.50;;
33279;SDS011;20403;43.114;12.434;2023-08-31T15:48:28;8.38;;;1.63;;
33279;SDS011;20403;43.114;12.434;2023-08-31T15:50:56;7.47;;;1.80;;
33279;SDS011;20403;43.114;12.434;2023-08-31T15:53:23;6.65;;;1.60;;
33279;SDS011;20403;43.114;12.434;2023-08-31T15:55:49;6.53;;;1.55;;
33279;SDS011;20403;43.114;12.434;2023-08-31T15:58:15;7.05;;;1.50;;
33279;SDS011;20403;43.114;12.434;2023-08-31T16:00:41;6.43;;;1.55;;
33279;SDS011;20403;43.114;12.434;2023-08-31T16:03:07;3.75;;;1.38;;
33279;SDS011;20403;43.114;12.434;2023-08-31T16:05:34;7.57;;;1.60;;
33279;SDS011;20403;43.114;12.434;2023-08-31T16:07:59;5.50;;;1.90;;
33279;SDS011;20403;43.114;12.434;2023-08-31T16:10:25;8.05;;;2.58;;
33279;SDS011;20403;43.114;12.434;2023-08-31T16:12:51;9.65;;;1.60;;
33279;SDS011;20403;43.114;12.434;2023-08-31T16:15:16;4.70;;;1.30;;
33279;SDS011;20403;43.114;12.434;2023-08-31T16:17:42;4.80;;;1.83;;
33279;SDS011;20403;43.114;12.434;2023-08-31T16:20:07;8.10;;;1.85;;
33279;SDS011;20403;43.114;12.434;2023-08-31T16:22:34;5.72;;;2.00;;
33279;SDS011;20403;43.114;12.434;2023-08-31T16:24:59;8.70;;;1.75;;
33279;SDS011;20403;43.114;12.434;2023-08-31T16:27:25;14.43;;;1.88;;
33279;SDS011;20403;43.114;12.434;2023-08-31T16:29:50;6.05;;;1.38;;
33279;SDS011;20403;43.114;12.434;2023-08-31T16:32:16;8.20;;;1.98;;
33279;SDS011;20403;43.114;12.434;2023-08-31T16:34:41;9.00;;;2.05;;
33279;SDS011;20403;43.114;12.434;2023-08-31T16:37:07;4.30;;;1.67;;
33279;SDS011;20403;43.114;12.434;2023-08-31T16:39:32;4.47;;;1.50;;
33279;SDS011;20403;43.114;12.434;2023-08-31T16:41:57;7.63;;;1.73;;
33279;SDS011;20403;43.114;12.434;2023-08-31T16:44:23;11.82;;;1.85;;
33279;SDS011;20403;43.114;12.434;2023-08-31T16:46:48;12.15;;;2.10;;
33279;SDS011;20403;43.114;12.434;2023-08-31T16:49:14;5.93;;;1.65;;
33279;SDS011;20403;43.114;12.434;2023-08-31T16:51:39;5.13;;;1.30;;
33279;SDS011;20403;43.114;12.434;2023-08-31T16:54:05;6.45;;;1.50;;
33279;SDS011;20403;43.114;12.434;2023-08-31T16:56:31;16.33;;;2.30;;
33279;SDS011;20403;43.114;12.434;2023-08-31T16:58:57;8.32;;;1.80;;
33279;SDS011;20403;43.114;12.434;2023-08-31T17:01:23;6.35;;;1.40;;
33279;SDS011;20403;43.114;12.434;2023-08-31T17:03:49;13.07;;;1.65;;
33279;SDS011;20403;43.114;12.434;2023-08-31T17:06:14;11.40;;;1.88;;
33279;SDS011;20403;43.114;12.434;2023-08-31T17:08:40;10.60;;;1.80;;
33279;SDS011;20403;43.114;12.434;2023-08-31T17:11:06;9.57;;;1.58;;
33279;SDS011;20403;43.114;12.434;2023-08-31T17:13:32;10.90;;;1.65;;
33279;SDS011;20403;43.114;12.434;2023-08-31T17:15:58;7.28;;;1.92;;
33279;SDS011;20403;43.114;12.434;2023-08-31T17:18:24;7.78;;;2.38;;
33279;SDS011;20403;43.114;12.434;2023-08-31T17:20:51;8.15;;;1.92;;
33279;SDS011;20403;43.114;12.434;2023-08-31T17:23:16;5.93;;;1.85;;
33279;SDS011;20403;43.114;12.434;2023-08-31T17:25:42;14.82;;;1.77;;
33279;SDS011;20403;43.114;12.434;2023-08-31T17:28:08;4.80;;;1.50;;
33279;SDS011;20403;43.114;12.434;2023-08-31T17:30:34;11.98;;;1.70;;
33279;SDS011;20403;43.114;12.434;2023-08-31T17:32:59;10.15;;;1.73;;
33279;SDS011;20403;43.114;12.434;2023-08-31T17:35:25;9.80;;;2.22;;
33279;SDS011;20403;43.114;12.434;2023-08-31T17:37:50;13.10;;;1.65;;
33279;SDS011;20403;43.114;12.434;2023-08-31T17:40:16;7.53;;;1.73;;
33279;SDS011;20403;43.114;12.434;2023-08-31T17:42:41;11.25;;;1.52;;
33279;SDS011;20403;43.114;12.434;2023-08-31T17:45:07;8.73;;;1.77;;
33279;SDS011;20403;43.114;12.434;2023-08-31T17:47:33;10.77;;;2.00;;
33279;SDS011;20403;43.114;12.434;2023-08-31T17:49:59;12.10;;;2.15;;
33279;SDS011;20403;43.114;12.434;2023-08-31T17:52:25;10.20;;;1.75;;
33279;SDS011;20403;43.114;12.434;2023-08-31T17:54:50;8.10;;;2.08;;
33279;SDS011;20403;43.114;12.434;2023-08-31T17:57:15;10.55;;;1.48;;
33279;SDS011;20403;43.114;12.434;2023-08-31T17:59:41;10.88;;;1.65;;
33279;SDS011;20403;43.114;12.434;2023-08-31T18:02:10;13.55;;;2.08;;
33279;SDS011;20403;43.114;12.434;2023-08-31T18:04:36;14.55;;;1.85;;
33279;SDS011;20403;43.114;12.434;2023-08-31T18:07:02;12.88;;;1.98;;
33279;SDS011;20403;43.114;12.434;2023-08-31T18:09:30;10.52;;;2.55;;
33279;SDS011;20403;43.114;12.434;2023-08-31T18:12:01;11.70;;;1.85;;
33279;SDS011;20403;43.114;12.434;2023-08-31T18:14:33;10.57;;;1.95;;
33279;SDS011;20403;43.114;12.434;2023-08-31T18:17:00;11.38;;;1.65;;
33279;SDS011;20403;43.114;12.434;2023-08-31T18:19:27;17.50;;;2.03;;
33279;SDS011;20403;43.114;12.434;2023-08-31T18:21:55;5.13;;;1.40;;
33279;SDS011;20403;43.114;12.434;2023-08-31T18:24:22;12.60;;;1.58;;
33279;SDS011;20403;43.114;12.434;2023-08-31T18:26:47;14.30;;;2.10;;
33279;SDS011;20403;43.114;12.434;2023-08-31T18:29:13;6.18;;;1.52;;
33279;SDS011;20403;43.114;12.434;2023-08-31T18:31:38;5.78;;;1.80;;
33279;SDS011;20403;43.114;12.434;2023-08-31T18:34:06;7.45;;;1.73;;
33279;SDS011;20403;43.114;12.434;2023-08-31T18:36:32;11.95;;;2.03;;
33279;SDS011;20403;43.114;12.434;2023-08-31T18:38:57;14.57;;;2.10;;
33279;SDS011;20403;43.114;12.434;2023-08-31T18:41:23;8.80;;;1.83;;
33279;SDS011;20403;43.114;12.434;2023-08-31T18:43:48;20.20;;;1.92;;
33279;SDS011;20403;43.114;12.434;2023-08-31T18:46:14;14.40;;;2.40;;
33279;SDS011;20403;43.114;12.434;2023-08-31T18:48:39;14.52;;;2.00;;
33279;SDS011;20403;43.114;12.434;2023-08-31T18:51:04;8.65;;;1.85;;
33279;SDS011;20403;43.114;12.434;2023-08-31T18:53:30;9.25;;;2.05;;
33279;SDS011;20403;43.114;12.434;2023-08-31T18:55:59;10.77;;;2.22;;
33279;SDS011;20403;43.114;12.434;2023-08-31T18:58:29;12.68;;;1.77;;
33279;SDS011;20403;43.114;12.434;2023-08-31T19:00:55;14.63;;;2.38;;
33279;SDS011;20403;43.114;12.434;2023-08-31T19:03:24;7.95;;;1.90;;
33279;SDS011;20403;43.114;12.434;2023-08-31T19:05:50;12.80;;;2.08;;
33279;SDS011;20403;43.114;12.434;2023-08-31T19:08:17;9.30;;;1.92;;
33279;SDS011;20403;43.114;12.434;2023-08-31T19:10:42;12.80;;;2.10;;
33279;SDS011;20403;43.114;12.434;2023-08-31T19:13:08;6.10;;;1.67;;
33279;SDS011;20403;43.114;12.434;2023-08-31T19:15:36;10.48;;;1.80;;
33279;SDS011;20403;43.114;12.434;2023-08-31T19:18:03;7.80;;;1.90;;
33279;SDS011;20403;43.114;12.434;2023-08-31T19:20:31;9.05;;;1.95;;
33279;SDS011;20403;43.114;12.434;2023-08-31T19:22:57;11.68;;;2.15;;
33279;SDS011;20403;43.114;12.434;2023-08-31T19:25:22;7.32;;;2.20;;
33279;SDS011;20403;43.114;12.434;2023-08-31T19:27:54;8.35;;;2.03;;
33279;SDS011;20403;43.114;12.434;2023-08-31T19:30:23;12.40;;;2.10;;
33279;SDS011;20403;43.114;12.434;2023-08-31T19:32:48;10.63;;;2.03;;
33279;SDS011;20403;43.114;12.434;2023-08-31T19:35:14;6.57;;;1.95;;